createdAt,value
2019-04-28T00:02:27.865Z,100502.55
2019-04-28T00:04:59.179Z,100508.75
2019-04-28T00:07:32.223Z,100497.68
2019-04-28T00:10:05.275Z,100489.80
2019-04-28T00:12:38.488Z,100490.40
2019-04-28T00:15:10.896Z,100494.73
2019-04-28T00:17:42.736Z,100485.39
2019-04-28T00:20:32.356Z,100483.23
2019-04-28T00:23:08.296Z,100483.77
2019-04-28T00:25:43.556Z,100483.57
2019-04-28T00:28:14.887Z,100483.66
2019-04-28T00:30:46.621Z,100484.76
2019-04-28T00:33:18.342Z,100486.45
2019-04-28T00:35:51.517Z,100493.28
2019-04-28T00:38:24.178Z,100486.38
2019-04-28T00:40:55.772Z,100482.39
2019-04-28T00:43:27.804Z,100478.03
2019-04-28T00:46:00.966Z,100474.13
2019-04-28T00:48:33.660Z,100469.83
2019-04-28T00:51:05.288Z,100466.94
2019-04-28T00:53:36.946Z,100462.94
2019-04-28T00:56:08.618Z,100458.33
2019-04-28T00:58:41.775Z,100446.09
2019-04-28T01:01:17.808Z,100445.64
2019-04-28T01:03:49.404Z,100449.30
2019-04-28T01:06:22.197Z,100445.44
2019-04-28T01:08:54.996Z,100450.69
2019-04-28T01:11:26.579Z,100444.00
2019-04-28T01:13:59.097Z,100443.66
2019-04-28T01:16:39.859Z,100447.31
2019-04-28T01:19:12.648Z,100453.31
2019-04-28T01:21:57.878Z,100457.82
2019-04-28T01:24:29.753Z,100469.01
2019-04-28T01:27:02.127Z,100451.85
2019-04-28T01:29:34.970Z,100452.38
2019-04-28T01:32:16.962Z,100452.62
2019-04-28T01:34:49.839Z,100428.82
2019-04-28T01:37:21.444Z,100406.77
2019-04-28T01:39:53.135Z,100383.91
2019-04-28T01:42:25.507Z,100377.31
2019-04-28T01:44:57.109Z,100379.59
2019-04-28T01:47:30.549Z,100381.00
2019-04-28T01:50:02.222Z,100377.84
2019-04-28T01:52:34.020Z,100374.31
2019-04-28T01:55:06.755Z,100370.14
2019-04-28T01:57:41.328Z,100375.69
2019-04-28T02:00:24.575Z,100375.28
2019-04-28T02:02:50.377Z,100382.45
2019-04-28T02:05:22.416Z,100375.14
2019-04-28T02:07:55.477Z,100375.50
2019-04-28T02:10:26.936Z,100377.67
2019-04-28T02:12:59.906Z,100383.43
2019-04-28T02:15:31.801Z,100384.47
2019-04-28T02:18:03.417Z,100378.78
2019-04-28T02:20:35.094Z,100377.30
2019-04-28T02:23:09.881Z,100384.66
2019-04-28T02:25:41.573Z,100376.78
2019-04-28T02:28:13.025Z,100376.02
2019-04-28T02:30:49.400Z,100373.77
2019-04-28T02:33:17.971Z,100371.58
2019-04-28T02:35:51.123Z,100376.32
2019-04-28T02:38:22.823Z,100372.97
2019-04-28T02:40:54.254Z,100373.44
2019-04-28T02:43:25.823Z,100374.01
2019-04-28T02:45:57.789Z,100372.18
2019-04-28T02:48:31.016Z,100373.87
2019-04-28T02:51:04.071Z,100369.60
2019-04-28T02:53:37.215Z,100365.59
2019-04-28T02:56:11.045Z,100377.69
2019-04-28T02:58:41.982Z,100374.34
2019-04-28T03:01:25.041Z,100375.72
2019-04-28T03:03:46.696Z,100375.78
2019-04-28T03:06:20.538Z,100376.48
2019-04-28T03:08:51.135Z,100372.63
2019-04-28T03:11:22.505Z,100376.95
2019-04-28T03:13:53.953Z,100380.05
2019-04-28T03:16:26.535Z,100373.97
2019-04-28T03:18:57.906Z,100379.95
2019-04-28T03:21:31.293Z,100382.34
2019-04-28T03:24:02.758Z,100378.04
2019-04-28T03:26:44.893Z,100382.39
2019-04-28T03:29:20.785Z,100376.63
2019-04-28T03:32:16.583Z,100379.65
2019-04-28T03:34:46.073Z,100376.52
2019-04-28T03:37:17.702Z,100374.95
2019-04-28T03:39:50.411Z,100373.00
2019-04-28T03:42:22.221Z,100382.69
2019-04-28T03:44:54.445Z,100383.23
2019-04-28T03:47:25.792Z,100384.02
2019-04-28T03:49:57.128Z,100394.49
2019-04-28T03:52:28.435Z,100397.00
2019-04-28T03:55:00.523Z,100394.38
2019-04-28T03:57:32.414Z,100388.01
2019-04-28T04:00:05.701Z,100387.73
2019-04-28T04:02:41.189Z,100391.61
2019-04-28T04:05:12.160Z,100395.22
2019-04-28T04:07:44.055Z,100388.94
2019-04-28T04:10:30.546Z,100390.27
2019-04-28T04:13:06.110Z,100391.82
2019-04-28T04:15:49.164Z,100399.20
2019-04-28T04:18:21.043Z,100396.16
2019-04-28T04:20:52.652Z,100401.49
2019-04-28T04:23:24.035Z,100404.79
2019-04-28T04:25:55.411Z,100409.31
2019-04-28T04:28:26.695Z,100408.41
2019-04-28T04:31:02.483Z,100406.51
2019-04-28T04:33:31.334Z,100413.19
2019-04-28T04:36:02.907Z,100412.91
2019-04-28T04:38:34.700Z,100405.41
2019-04-28T04:41:06.368Z,100401.35
2019-04-28T04:43:37.637Z,100402.31
2019-04-28T04:46:22.114Z,100407.95
2019-04-28T04:48:54.844Z,100409.83
2019-04-28T04:51:26.303Z,100405.97
2019-04-28T04:54:00.694Z,100402.45
2019-04-28T04:56:30.955Z,100409.17
2019-04-28T04:59:02.935Z,100417.81
2019-04-28T05:01:54.182Z,100413.84
2019-04-28T05:04:29.817Z,100414.77
2019-04-28T05:07:01.326Z,100413.84
2019-04-28T05:09:32.745Z,100405.72
2019-04-28T05:12:04.055Z,100410.02
2019-04-28T05:14:36.409Z,100408.81
2019-04-28T05:17:07.876Z,100406.50
2019-04-28T05:19:40.188Z,100415.03
2019-04-28T05:22:12.513Z,100409.72
2019-04-28T05:24:46.232Z,100410.07
2019-04-28T05:27:23.954Z,100412.42
2019-04-28T05:29:51.895Z,100411.41
2019-04-28T05:32:23.300Z,100411.73
2019-04-28T05:34:54.744Z,100409.17
2019-04-28T05:37:26.122Z,100408.32
2019-04-28T05:39:57.508Z,100415.25
2019-04-28T05:42:30.226Z,100414.90
2019-04-28T05:45:01.758Z,100418.03
2019-04-28T05:47:33.262Z,100421.97
2019-04-28T05:50:12.685Z,100422.45
2019-04-28T05:52:57.840Z,100422.70
2019-04-28T05:55:31.893Z,100427.72
2019-04-28T05:58:04.897Z,100418.16
2019-04-28T06:00:56.384Z,100412.98
2019-04-28T06:03:30.233Z,100422.80
2019-04-28T06:06:01.849Z,100417.59
2019-04-28T06:08:37.946Z,100422.47
2019-04-28T06:11:27.498Z,100424.27
2019-04-28T06:13:59.968Z,100425.98
2019-04-28T06:16:31.487Z,100422.39
2019-04-28T06:19:03.381Z,100421.41
2019-04-28T06:21:34.935Z,100412.55
2019-04-28T06:24:06.527Z,100411.82
2019-04-28T06:26:38.046Z,100413.91
2019-04-28T06:29:09.569Z,100416.91
2019-04-28T06:31:41.087Z,100414.14
2019-04-28T06:34:14.084Z,100421.14
2019-04-28T06:36:45.732Z,100425.91
2019-04-28T06:39:17.627Z,100424.59
2019-04-28T06:41:49.122Z,100414.00
2019-04-28T06:44:22.479Z,100414.52
2019-04-28T06:46:54.132Z,100422.35
2019-04-28T06:49:25.515Z,100425.02
2019-04-28T06:51:56.798Z,100416.78
2019-04-28T06:54:28.304Z,100411.55
2019-04-28T06:57:00.008Z,100410.36
2019-04-28T06:59:31.587Z,100408.45
2019-04-28T07:02:03.136Z,100407.48
2019-04-28T07:04:34.746Z,100401.39
2019-04-28T07:07:06.370Z,100392.55
2019-04-28T07:09:37.903Z,100394.77
2019-04-28T07:12:09.540Z,100385.80
2019-04-28T07:14:41.016Z,100390.55
2019-04-28T07:17:12.899Z,100390.28
2019-04-28T07:19:46.048Z,100385.30
2019-04-28T07:22:24.785Z,100388.67
2019-04-28T07:24:56.444Z,100384.17
2019-04-28T07:27:28.209Z,100386.05
2019-04-28T07:29:59.966Z,100390.32
2019-04-28T07:32:31.466Z,100392.93
2019-04-28T07:35:02.962Z,100399.70
2019-04-28T07:37:34.547Z,100396.94
2019-04-28T07:40:07.033Z,100400.95
2019-04-28T07:42:38.542Z,100416.05
2019-04-28T07:45:10.603Z,100411.98
2019-04-28T07:47:42.072Z,100412.64
2019-04-28T07:50:14.432Z,100412.23
2019-04-28T07:52:50.600Z,100390.38
2019-04-28T07:55:22.057Z,100388.03
2019-04-28T07:57:53.585Z,100394.20
2019-04-28T08:00:29.557Z,100390.20
2019-04-28T08:03:00.924Z,100403.16
2019-04-28T08:05:32.559Z,100403.13
2019-04-28T08:08:04.085Z,100399.45
2019-04-28T08:10:35.671Z,100385.72
2019-04-28T08:13:07.191Z,100385.67
2019-04-28T08:15:38.900Z,100382.42
2019-04-28T08:18:10.444Z,100379.69
2019-04-28T08:20:42.085Z,100378.11
2019-04-28T08:23:13.740Z,100377.11
2019-04-28T08:25:45.325Z,100376.45
2019-04-28T08:28:16.843Z,100378.91
2019-04-28T08:30:48.296Z,100386.92
2019-04-28T08:33:37.019Z,100374.90
2019-04-28T08:36:08.609Z,100378.97
2019-04-28T08:38:40.048Z,100382.09
2019-04-28T08:41:11.390Z,100377.56
2019-04-28T08:43:42.776Z,100382.64
2019-04-28T08:46:14.306Z,100388.66
2019-04-28T08:48:45.789Z,100381.20
2019-04-28T08:51:17.309Z,100384.03
2019-04-28T08:53:48.818Z,100383.19
2019-04-28T08:56:20.280Z,100379.36
2019-04-28T08:58:51.843Z,100377.56
2019-04-28T09:01:23.471Z,100365.80
2019-04-28T09:03:55.045Z,100371.48
2019-04-28T09:06:27.453Z,100361.20
2019-04-28T09:08:59.029Z,100374.61
2019-04-28T09:11:30.642Z,100369.70
2019-04-28T09:14:02.280Z,100371.14
2019-04-28T09:16:33.827Z,100378.58
2019-04-28T09:19:05.429Z,100365.44
2019-04-28T09:21:36.964Z,100365.09
2019-04-28T09:24:08.349Z,100364.85
2019-04-28T09:26:40.393Z,100372.25
2019-04-28T09:29:11.890Z,100359.55
2019-04-28T09:31:43.358Z,100362.55
2019-04-28T09:34:27.580Z,100358.42
2019-04-28T09:36:48.013Z,100367.70
2019-04-28T09:39:23.493Z,100365.23
2019-04-28T09:42:13.189Z,100361.19
2019-04-28T09:44:44.707Z,100370.61
2019-04-28T09:47:16.266Z,100371.14
2019-04-28T09:49:47.518Z,100368.63
2019-04-28T09:52:18.815Z,100370.38
2019-04-28T09:54:50.270Z,100362.52
2019-04-28T09:57:24.266Z,100368.12
2019-04-28T09:59:55.793Z,100359.63
2019-04-28T10:02:27.206Z,100366.44
2019-04-28T10:04:58.637Z,100373.20
2019-04-28T10:07:31.252Z,100373.33
2019-04-28T10:10:02.974Z,100367.48
2019-04-28T10:12:34.662Z,100367.75
2019-04-28T10:15:10.377Z,100370.11
2019-04-28T10:17:41.858Z,100375.16
2019-04-28T10:20:13.935Z,100375.55
2019-04-28T10:22:45.343Z,100376.02
2019-04-28T10:25:17.124Z,100372.83
2019-04-28T10:27:48.459Z,100371.31
2019-04-28T10:30:19.857Z,100371.79
2019-04-28T10:32:51.350Z,100370.44
2019-04-28T10:35:22.846Z,100367.42
2019-04-28T10:37:54.284Z,100367.42
2019-04-28T10:40:56.985Z,100368.12
2019-04-28T10:43:28.498Z,100357.00
2019-04-28T10:45:59.851Z,100360.73
2019-04-28T10:48:31.194Z,100362.77
2019-04-28T10:51:02.560Z,100361.12
2019-04-28T10:53:33.929Z,100359.78
2019-04-28T10:56:06.362Z,100353.93
2019-04-28T10:58:37.896Z,100354.83
2019-04-28T11:01:09.329Z,100349.00
2019-04-28T11:03:42.446Z,100345.13
2019-04-28T11:06:14.109Z,100349.53
2019-04-28T11:08:59.602Z,100348.52
2019-04-28T11:11:31.223Z,100345.83
2019-04-28T11:14:02.654Z,100352.91
2019-04-28T11:16:35.228Z,100342.63
2019-04-28T11:19:06.712Z,100347.84
2019-04-28T11:21:38.301Z,100357.95
2019-04-28T11:24:09.903Z,100359.46
2019-04-28T11:26:41.260Z,100359.61
2019-04-28T11:29:13.839Z,100358.69
2019-04-28T11:31:45.341Z,100361.39
2019-04-28T11:34:18.338Z,100355.48
2019-04-28T11:36:49.769Z,100350.42
2019-04-28T11:39:22.866Z,100353.72
2019-04-28T11:41:55.674Z,100344.61
2019-04-28T11:44:27.247Z,100343.58
2019-04-28T11:46:58.708Z,100341.06
2019-04-28T11:49:30.125Z,100336.61
2019-04-28T11:52:01.466Z,100332.06
2019-04-28T11:54:32.819Z,100323.89
2019-04-28T11:57:05.716Z,100322.58
2019-04-28T11:59:37.298Z,100321.91
2019-04-28T12:02:08.726Z,100315.51
2019-04-28T12:04:40.395Z,100316.87
2019-04-28T12:07:11.697Z,100307.45
2019-04-28T12:09:47.652Z,100304.58
2019-04-28T12:12:36.234Z,100298.02
2019-04-28T12:15:21.709Z,100290.63
2019-04-28T12:18:10.754Z,100293.30
2019-04-28T12:20:42.150Z,100296.62
2019-04-28T12:23:13.879Z,100292.20
2019-04-28T12:25:45.233Z,100282.44
2019-04-28T12:28:16.666Z,100289.02
2019-04-28T12:30:48.056Z,100274.37
2019-04-28T12:33:19.528Z,100284.79
2019-04-28T12:35:50.978Z,100287.48
2019-04-28T12:38:22.446Z,100282.27
2019-04-28T12:40:53.891Z,100288.30
2019-04-28T12:43:25.309Z,100284.91
2019-04-28T12:45:56.700Z,100284.66
2019-04-28T12:48:28.160Z,100287.34
2019-04-28T12:50:59.534Z,100281.69
2019-04-28T12:53:31.320Z,100279.16
2019-04-28T12:56:02.755Z,100279.91
2019-04-28T12:58:34.219Z,100279.79
2019-04-28T13:01:15.891Z,100277.52
2019-04-28T13:03:57.859Z,100283.30
2019-04-28T13:06:30.987Z,100282.84
2019-04-28T13:09:02.470Z,100278.56
2019-04-28T13:11:35.115Z,100273.02
2019-04-28T13:14:06.545Z,100271.80
2019-04-28T13:16:38.149Z,100270.34
2019-04-28T13:19:09.599Z,100268.06
2019-04-28T13:21:40.975Z,100265.10
2019-04-28T13:24:12.272Z,100266.31
2019-04-28T13:26:43.804Z,100258.39
2019-04-28T13:29:15.210Z,100255.70
2019-04-28T13:31:46.708Z,100249.98
2019-04-28T13:34:19.739Z,100246.98
2019-04-28T13:36:51.063Z,100244.63
2019-04-28T13:39:24.268Z,100237.98
2019-04-28T13:41:55.758Z,100233.44
2019-04-28T13:44:45.044Z,100236.02
2019-04-28T13:47:16.467Z,100237.75
2019-04-28T13:49:49.577Z,100227.45
2019-04-28T13:52:21.055Z,100228.30
2019-04-28T13:54:57.125Z,100228.88
2019-04-28T13:57:28.679Z,100220.25
2019-04-28T14:00:04.477Z,100229.93
2019-04-28T14:02:37.717Z,100231.48
2019-04-28T14:05:28.015Z,100233.62
2019-04-28T14:08:01.158Z,100234.28
2019-04-28T14:10:32.596Z,100229.25
2019-04-28T14:13:04.198Z,100222.01
2019-04-28T14:15:35.698Z,100232.98
2019-04-28T14:18:07.218Z,100225.28
2019-04-28T14:20:38.723Z,100228.47
2019-04-28T14:23:10.150Z,100224.11
2019-04-28T14:25:41.619Z,100220.12
2019-04-28T14:28:12.950Z,100225.10
2019-04-28T14:30:44.343Z,100224.63
2019-04-28T14:33:16.658Z,100218.59
2019-04-28T14:35:48.382Z,100218.25
2019-04-28T14:38:19.725Z,100217.24
2019-04-28T14:40:51.326Z,100216.94
2019-04-28T14:43:22.796Z,100214.12
2019-04-28T14:45:54.220Z,100219.40
2019-04-28T14:48:25.791Z,100213.37
2019-04-28T14:50:57.391Z,100213.59
2019-04-28T14:53:29.080Z,100212.42
2019-04-28T14:56:00.630Z,100216.47
2019-04-28T14:58:32.184Z,100213.16
2019-04-28T15:01:11.212Z,100210.82
2019-04-28T15:03:53.184Z,100204.11
2019-04-28T15:06:29.464Z,100205.11
2019-04-28T15:09:05.249Z,100198.72
2019-04-28T15:11:42.818Z,100198.48
2019-04-28T15:14:14.333Z,100194.64
2019-04-28T15:16:45.785Z,100192.66
2019-04-28T15:19:17.207Z,100193.66
2019-04-28T15:21:48.599Z,100186.94
2019-04-28T15:24:20.103Z,100189.11
2019-04-28T15:26:51.556Z,100190.26
2019-04-28T15:29:22.966Z,100186.11
2019-04-28T15:31:54.332Z,100192.16
2019-04-28T15:34:25.691Z,100185.27
2019-04-28T15:37:09.176Z,100184.10
2019-04-28T15:39:30.371Z,100187.08
2019-04-28T15:42:01.732Z,100185.01
2019-04-28T15:44:34.696Z,100188.10
2019-04-28T15:47:06.058Z,100184.84
2019-04-28T15:49:38.689Z,100181.48
2019-04-28T15:52:10.043Z,100180.51
2019-04-28T15:54:42.854Z,100175.78
2019-04-28T15:57:14.306Z,100176.81
2019-04-28T15:59:45.785Z,100169.40
2019-04-28T16:02:17.204Z,100176.28
2019-04-28T16:04:48.651Z,100170.23
2019-04-28T16:07:25.191Z,100167.38
2019-04-28T16:09:57.752Z,100174.33
2019-04-28T16:12:29.342Z,100178.52
2019-04-28T16:15:00.802Z,100174.62
2019-04-28T16:17:32.391Z,100173.27
2019-04-28T16:20:07.337Z,100174.02
2019-04-28T16:22:38.781Z,100176.86
2019-04-28T16:25:10.170Z,100174.97
2019-04-28T16:27:41.471Z,100175.43
2019-04-28T16:30:13.080Z,100178.89
2019-04-28T16:32:44.547Z,100182.20
2019-04-28T16:35:16.127Z,100183.65
2019-04-28T16:37:47.477Z,100182.75
2019-04-28T16:40:19.033Z,100185.70
2019-04-28T16:42:51.279Z,100190.52
2019-04-28T16:45:22.677Z,100194.36
2019-04-28T16:47:54.049Z,100192.91
2019-04-28T16:50:25.575Z,100197.04
2019-04-28T16:52:56.948Z,100203.06
2019-04-28T16:55:45.289Z,100203.11
2019-04-28T16:58:18.333Z,100198.01
2019-04-28T17:00:57.453Z,100204.70
2019-04-28T17:03:30.626Z,100205.36
2019-04-28T17:06:03.388Z,100212.38
2019-04-28T17:08:34.916Z,100214.16
2019-04-28T17:11:06.369Z,100220.80
2019-04-28T17:13:38.090Z,100226.87
2019-04-28T17:16:10.044Z,100218.11
2019-04-28T17:18:42.148Z,100224.47
2019-04-28T17:21:13.507Z,100220.11
2019-04-28T17:23:44.976Z,100225.91
2019-04-28T17:26:16.406Z,100233.44
2019-04-28T17:28:47.801Z,100232.41
2019-04-28T17:31:19.170Z,100236.25
2019-04-28T17:33:51.068Z,100236.86
2019-04-28T17:36:24.240Z,100241.98
2019-04-28T17:38:55.860Z,100240.45
2019-04-28T17:41:28.529Z,100247.98
2019-04-28T17:43:59.864Z,100245.81
2019-04-28T17:46:31.379Z,100258.77
2019-04-28T17:49:02.914Z,100262.33
2019-04-28T17:51:34.384Z,100267.25
2019-04-28T17:54:06.013Z,100269.27
2019-04-28T17:56:37.469Z,100273.02
2019-04-28T17:59:09.814Z,100273.39
2019-04-28T18:01:48.702Z,100273.05
2019-04-28T18:04:36.998Z,100285.45
2019-04-28T18:07:13.174Z,100281.39
2019-04-28T18:09:44.496Z,100288.94
2019-04-28T18:12:15.992Z,100291.20
2019-04-28T18:14:49.012Z,100294.89
2019-04-28T18:17:31.317Z,100300.89
2019-04-28T18:20:02.932Z,100297.81
2019-04-28T18:22:35.849Z,100297.89
2019-04-28T18:25:07.788Z,100301.57
2019-04-28T18:27:39.091Z,100307.62
2019-04-28T18:30:12.459Z,100304.81
2019-04-28T18:32:54.877Z,100297.40
2019-04-28T18:35:33.772Z,100303.32
2019-04-28T18:38:16.180Z,100307.75
2019-04-28T18:41:05.504Z,100306.29
2019-04-28T18:43:47.944Z,100302.23
2019-04-28T18:46:24.150Z,100302.52
2019-04-28T18:48:55.669Z,100300.14
2019-04-28T18:51:27.178Z,100300.83
2019-04-28T18:53:58.516Z,100302.67
2019-04-28T18:56:31.866Z,100297.70
2019-04-28T18:59:03.333Z,100301.07
2019-04-28T19:01:42.437Z,100297.26
2019-04-28T19:04:13.814Z,100293.67
2019-04-28T19:06:45.441Z,100297.34
2019-04-28T19:09:24.336Z,100298.16
2019-04-28T19:12:06.330Z,100298.58
2019-04-28T19:14:39.280Z,100301.25
2019-04-28T19:17:14.949Z,100295.70
2019-04-28T19:19:46.392Z,100296.74
2019-04-28T19:22:17.830Z,100296.89
2019-04-28T19:24:49.352Z,100297.86
2019-04-28T19:27:21.035Z,100300.41
2019-04-28T19:29:52.529Z,100298.28
2019-04-28T19:32:24.042Z,100299.88
2019-04-28T19:34:55.635Z,100303.48
2019-04-28T19:37:27.218Z,100301.56
2019-04-28T19:39:59.852Z,100300.56
2019-04-28T19:42:31.495Z,100301.59
2019-04-28T19:45:03.050Z,100301.33
2019-04-28T19:47:34.916Z,100300.48
2019-04-28T19:50:07.728Z,100308.37
2019-04-28T19:52:42.526Z,100310.55
2019-04-28T19:55:23.846Z,100305.38
2019-04-28T19:58:15.061Z,100313.14
2019-04-28T20:00:48.161Z,100311.66
2019-04-28T20:03:19.714Z,100311.80
2019-04-28T20:05:51.387Z,100317.20
2019-04-28T20:08:23.928Z,100317.78
2019-04-28T20:10:56.388Z,100322.94
2019-04-28T20:13:27.701Z,100319.58
2019-04-28T20:15:59.386Z,100318.61
2019-04-28T20:18:32.563Z,100325.89
2019-04-28T20:21:04.193Z,100326.77
2019-04-28T20:23:36.630Z,100330.92
2019-04-28T20:26:08.062Z,100335.78
2019-04-28T20:28:39.527Z,100328.41
2019-04-28T20:31:10.974Z,100324.61
2019-04-28T20:33:43.899Z,100329.19
2019-04-28T20:36:26.263Z,100341.48
2019-04-28T20:39:02.012Z,100344.02
2019-04-28T20:41:35.049Z,100339.95
2019-04-28T20:44:06.690Z,100338.37
2019-04-28T20:46:38.001Z,100336.49
2019-04-28T20:49:09.489Z,100332.28
2019-04-28T20:51:42.562Z,100333.13
2019-04-28T20:54:14.070Z,100338.13
2019-04-28T20:56:47.126Z,100336.00
2019-04-28T20:59:18.737Z,100336.64
2019-04-28T21:01:50.214Z,100341.84
2019-04-28T21:04:21.849Z,100342.45
2019-04-28T21:06:53.431Z,100338.73
2019-04-28T21:09:25.014Z,100348.85
2019-04-28T21:11:56.398Z,100345.34
2019-04-28T21:14:27.836Z,100356.81
2019-04-28T21:16:59.230Z,100357.22
2019-04-28T21:19:30.847Z,100354.83
2019-04-28T21:22:02.528Z,100357.12
2019-04-28T21:24:50.213Z,100357.36
2019-04-28T21:27:21.752Z,100352.41
2019-04-28T21:29:53.493Z,100362.06
2019-04-28T21:32:24.930Z,100355.73
2019-04-28T21:34:57.208Z,100358.25
2019-04-28T21:37:28.652Z,100359.39
2019-04-28T21:40:00.100Z,100361.80
2019-04-28T21:42:45.232Z,100363.27
2019-04-28T21:45:34.667Z,100372.07
2019-04-28T21:48:06.062Z,100365.44
2019-04-28T21:50:37.464Z,100369.44
2019-04-28T21:53:09.023Z,100364.24
2019-04-28T21:55:40.526Z,100370.50
2019-04-28T21:58:11.870Z,100372.37
2019-04-28T22:00:52.104Z,100368.64
2019-04-28T22:03:26.720Z,100375.72
2019-04-28T22:05:58.430Z,100375.16
2019-04-28T22:08:29.896Z,100368.52
2019-04-28T22:11:01.498Z,100368.31
2019-04-28T22:13:33.157Z,100369.02
2019-04-28T22:16:04.608Z,100355.56
2019-04-28T22:18:36.034Z,100357.39
2019-04-28T22:21:08.931Z,100358.23
2019-04-28T22:23:59.027Z,100350.40
2019-04-28T22:26:44.210Z,100350.89
2019-04-28T22:29:16.666Z,100351.66
2019-04-28T22:31:48.257Z,100347.55
2019-04-28T22:34:19.670Z,100348.05
2019-04-28T22:36:51.619Z,100352.20
2019-04-28T22:39:23.053Z,100351.07
2019-04-28T22:41:54.420Z,100341.69
2019-04-28T22:44:30.504Z,100344.96
2019-04-28T22:47:01.883Z,100341.69
2019-04-28T22:49:33.384Z,100345.91
2019-04-28T22:52:04.730Z,100345.56
2019-04-28T22:54:50.724Z,100346.12
2019-04-28T22:57:35.605Z,100344.26
2019-04-28T23:00:11.724Z,100343.91
2019-04-28T23:02:44.900Z,100342.71
2019-04-28T23:05:16.322Z,100339.20
2019-04-28T23:07:47.855Z,100334.59
2019-04-28T23:10:19.204Z,100333.75
2019-04-28T23:12:50.592Z,100330.20
2019-04-28T23:15:22.116Z,100323.91
2019-04-28T23:17:53.734Z,100328.69
2019-04-28T23:20:26.880Z,100326.52
2019-04-28T23:22:59.941Z,100326.72
2019-04-28T23:25:31.243Z,100332.14
2019-04-28T23:28:02.731Z,100329.39
2019-04-28T23:30:39.875Z,100328.41
2019-04-28T23:33:11.364Z,100326.76
2019-04-28T23:35:42.823Z,100330.27
2019-04-28T23:38:14.275Z,100331.95
2019-04-28T23:40:56.888Z,100335.44
2019-04-28T23:43:28.255Z,100337.75
2019-04-28T23:45:59.548Z,100340.94
2019-04-28T23:48:31.072Z,100339.80
2019-04-28T23:51:09.818Z,100335.73
2019-04-28T23:53:58.041Z,100340.59
2019-04-28T23:56:29.408Z,100336.27
2019-04-28T23:59:00.841Z,100338.59
